sensor_id;sensor_type;location;lat;lon;timestamp;temperature;humidity
61392;DHT22;47261;52.892;5.738;2022-08-19T00:01:54;17.80;92.90
61392;DHT22;47261;52.892;5.738;2022-08-19T00:04:23;17.80;92.90
61392;DHT22;47261;52.892;5.738;2022-08-19T00:06:50;17.80;92.90
61392;DHT22;47261;52.892;5.738;2022-08-19T00:09:18;17.80;92.90
61392;DHT22;47261;52.892;5.738;2022-08-19T00:11:45;17.80;92.90
61392;DHT22;47261;52.892;5.738;2022-08-19T00:14:13;17.80;92.90
61392;DHT22;47261;52.892;5.738;2022-08-19T00:16:40;17.80;92.90
61392;DHT22;47261;52.892;5.738;2022-08-19T00:19:06;17.80;92.90
61392;DHT22;47261;52.892;5.738;2022-08-19T00:21:33;17.80;92.90
61392;DHT22;47261;52.892;5.738;2022-08-19T00:24:04;17.80;92.90
61392;DHT22;47261;52.892;5.738;2022-08-19T00:26:30;17.80;92.90
61392;DHT22;47261;52.892;5.738;2022-08-19T00:28:56;17.80;92.90
61392;DHT22;47261;52.892;5.738;2022-08-19T00:31:21;17.80;92.90
61392;DHT22;47261;52.892;5.738;2022-08-19T00:33:47;17.80;92.90
61392;DHT22;47261;52.892;5.738;2022-08-19T00:36:14;17.80;92.90
61392;DHT22;47261;52.892;5.738;2022-08-19T00:38:40;17.70;92.90
61392;DHT22;47261;52.892;5.738;2022-08-19T00:41:17;17.70;92.90
61392;DHT22;47261;52.892;5.738;2022-08-19T00:44:00;17.70;93.00
61392;DHT22;47261;52.892;5.738;2022-08-19T00:46:27;17.70;93.10
61392;DHT22;47261;52.892;5.738;2022-08-19T00:48:53;17.70;93.30
61392;DHT22;47261;52.892;5.738;2022-08-19T00:51:19;17.70;93.30
61392;DHT22;47261;52.892;5.738;2022-08-19T00:53:45;17.60;93.10
61392;DHT22;47261;52.892;5.738;2022-08-19T00:56:11;17.60;93.10
61392;DHT22;47261;52.892;5.738;2022-08-19T00:58:36;17.60;93.10
61392;DHT22;47261;52.892;5.738;2022-08-19T01:01:04;17.60;93.10
61392;DHT22;47261;52.892;5.738;2022-08-19T01:03:30;17.60;93.20
61392;DHT22;47261;52.892;5.738;2022-08-19T01:05:56;17.60;93.20
61392;DHT22;47261;52.892;5.738;2022-08-19T01:08:22;17.60;93.20
61392;DHT22;47261;52.892;5.738;2022-08-19T01:10:54;17.60;93.30
61392;DHT22;47261;52.892;5.738;2022-08-19T01:13:23;17.60;93.40
61392;DHT22;47261;52.892;5.738;2022-08-19T01:16:03;17.70;93.40
61392;DHT22;47261;52.892;5.738;2022-08-19T01:18:29;17.70;93.40
61392;DHT22;47261;52.892;5.738;2022-08-19T01:20:58;17.60;93.30
61392;DHT22;47261;52.892;5.738;2022-08-19T01:23:26;17.60;93.30
61392;DHT22;47261;52.892;5.738;2022-08-19T01:26:10;17.60;93.40
61392;DHT22;47261;52.892;5.738;2022-08-19T01:28:36;17.60;93.40
61392;DHT22;47261;52.892;5.738;2022-08-19T01:31:02;17.60;93.40
61392;DHT22;47261;52.892;5.738;2022-08-19T01:33:28;17.60;93.40
61392;DHT22;47261;52.892;5.738;2022-08-19T01:36:07;17.60;93.40
61392;DHT22;47261;52.892;5.738;2022-08-19T01:38:37;17.60;93.50
61392;DHT22;47261;52.892;5.738;2022-08-19T01:41:03;17.60;93.40
61392;DHT22;47261;52.892;5.738;2022-08-19T01:43:29;17.50;93.40
61392;DHT22;47261;52.892;5.738;2022-08-19T01:45:54;17.50;93.40
61392;DHT22;47261;52.892;5.738;2022-08-19T01:48:20;17.50;93.40
61392;DHT22;47261;52.892;5.738;2022-08-19T01:50:46;17.50;93.50
61392;DHT22;47261;52.892;5.738;2022-08-19T01:53:13;17.50;93.40
61392;DHT22;47261;52.892;5.738;2022-08-19T01:55:41;17.50;93.50
61392;DHT22;47261;52.892;5.738;2022-08-19T01:58:14;17.50;93.50
61392;DHT22;47261;52.892;5.738;2022-08-19T02:00:41;17.50;93.50
61392;DHT22;47261;52.892;5.738;2022-08-19T02:03:06;17.50;93.50
61392;DHT22;47261;52.892;5.738;2022-08-19T02:05:34;17.40;93.50
61392;DHT22;47261;52.892;5.738;2022-08-19T02:08:00;17.40;93.50
61392;DHT22;47261;52.892;5.738;2022-08-19T02:10:25;17.40;93.60
61392;DHT22;47261;52.892;5.738;2022-08-19T02:12:51;17.40;93.60
61392;DHT22;47261;52.892;5.738;2022-08-19T02:15:18;17.40;93.90
61392;DHT22;47261;52.892;5.738;2022-08-19T02:17:45;17.40;93.70
61392;DHT22;47261;52.892;5.738;2022-08-19T02:20:12;17.30;93.70
61392;DHT22;47261;52.892;5.738;2022-08-19T02:22:38;17.30;93.70
61392;DHT22;47261;52.892;5.738;2022-08-19T02:25:08;17.30;93.70
61392;DHT22;47261;52.892;5.738;2022-08-19T02:27:34;17.30;93.70
61392;DHT22;47261;52.892;5.738;2022-08-19T02:29:59;17.30;93.70
61392;DHT22;47261;52.892;5.738;2022-08-19T02:32:26;17.30;93.70
61392;DHT22;47261;52.892;5.738;2022-08-19T02:34:51;17.20;93.80
61392;DHT22;47261;52.892;5.738;2022-08-19T02:37:17;17.20;93.80
61392;DHT22;47261;52.892;5.738;2022-08-19T02:40:11;17.10;93.80
61392;DHT22;47261;52.892;5.738;2022-08-19T02:42:37;17.10;93.90
61392;DHT22;47261;52.892;5.738;2022-08-19T02:45:03;17.10;93.90
61392;DHT22;47261;52.892;5.738;2022-08-19T02:47:30;17.00;94.00
61392;DHT22;47261;52.892;5.738;2022-08-19T02:49:55;17.00;94.00
61392;DHT22;47261;52.892;5.738;2022-08-19T02:52:21;17.00;94.10
61392;DHT22;47261;52.892;5.738;2022-08-19T02:54:48;17.00;94.10
61392;DHT22;47261;52.892;5.738;2022-08-19T02:57:14;17.00;94.10
61392;DHT22;47261;52.892;5.738;2022-08-19T02:59:40;17.00;94.10
61392;DHT22;47261;52.892;5.738;2022-08-19T03:02:06;16.90;94.10
61392;DHT22;47261;52.892;5.738;2022-08-19T03:04:31;16.90;94.10
61392;DHT22;47261;52.892;5.738;2022-08-19T03:06:57;16.90;94.10
61392;DHT22;47261;52.892;5.738;2022-08-19T03:09:22;16.90;94.20
61392;DHT22;47261;52.892;5.738;2022-08-19T03:11:48;16.90;94.20
61392;DHT22;47261;52.892;5.738;2022-08-19T03:14:14;16.90;94.20
61392;DHT22;47261;52.892;5.738;2022-08-19T03:16:43;16.80;94.30
61392;DHT22;47261;52.892;5.738;2022-08-19T03:19:09;16.80;94.30
61392;DHT22;47261;52.892;5.738;2022-08-19T03:21:34;16.80;94.30
61392;DHT22;47261;52.892;5.738;2022-08-19T03:24:03;16.70;94.30
61392;DHT22;47261;52.892;5.738;2022-08-19T03:26:30;16.70;94.40
61392;DHT22;47261;52.892;5.738;2022-08-19T03:28:56;16.70;94.40
61392;DHT22;47261;52.892;5.738;2022-08-19T03:31:22;16.70;94.50
61392;DHT22;47261;52.892;5.738;2022-08-19T03:33:49;16.70;94.80
61392;DHT22;47261;52.892;5.738;2022-08-19T03:36:18;16.70;94.60
61392;DHT22;47261;52.892;5.738;2022-08-19T03:38:48;16.60;94.60
61392;DHT22;47261;52.892;5.738;2022-08-19T03:41:16;16.60;94.70
61392;DHT22;47261;52.892;5.738;2022-08-19T03:43:44;16.70;94.70
61392;DHT22;47261;52.892;5.738;2022-08-19T03:46:17;16.60;94.60
61392;DHT22;47261;52.892;5.738;2022-08-19T03:48:46;16.60;94.60
61392;DHT22;47261;52.892;5.738;2022-08-19T03:51:27;16.50;94.60
61392;DHT22;47261;52.892;5.738;2022-08-19T03:53:54;16.50;94.80
61392;DHT22;47261;52.892;5.738;2022-08-19T03:56:20;16.50;94.80
61392;DHT22;47261;52.892;5.738;2022-08-19T03:58:46;16.50;94.80
61392;DHT22;47261;52.892;5.738;2022-08-19T04:01:16;16.50;94.90
61392;DHT22;47261;52.892;5.738;2022-08-19T04:03:43;16.50;94.90
61392;DHT22;47261;52.892;5.738;2022-08-19T04:08:41;16.50;95.00
61392;DHT22;47261;52.892;5.738;2022-08-19T04:11:15;16.50;95.00
61392;DHT22;47261;52.892;5.738;2022-08-19T04:13:41;16.50;95.00
61392;DHT22;47261;52.892;5.738;2022-08-19T04:16:09;16.50;95.00
61392;DHT22;47261;52.892;5.738;2022-08-19T04:18:36;16.50;95.00
61392;DHT22;47261;52.892;5.738;2022-08-19T04:21:03;16.50;95.00
61392;DHT22;47261;52.892;5.738;2022-08-19T04:23:29;16.50;95.00
61392;DHT22;47261;52.892;5.738;2022-08-19T04:25:55;16.50;95.00
61392;DHT22;47261;52.892;5.738;2022-08-19T04:28:22;16.40;94.90
61392;DHT22;47261;52.892;5.738;2022-08-19T04:30:50;16.40;94.90
61392;DHT22;47261;52.892;5.738;2022-08-19T04:33:18;16.40;95.00
61392;DHT22;47261;52.892;5.738;2022-08-19T04:35:47;16.40;95.00
61392;DHT22;47261;52.892;5.738;2022-08-19T04:38:15;16.40;95.00
61392;DHT22;47261;52.892;5.738;2022-08-19T04:40:51;16.30;95.10
61392;DHT22;47261;52.892;5.738;2022-08-19T04:43:38;16.40;95.30
61392;DHT22;47261;52.892;5.738;2022-08-19T04:46:11;16.40;95.30
61392;DHT22;47261;52.892;5.738;2022-08-19T04:48:38;16.50;95.40
61392;DHT22;47261;52.892;5.738;2022-08-19T04:51:10;16.50;95.40
61392;DHT22;47261;52.892;5.738;2022-08-19T04:53:38;16.50;95.40
61392;DHT22;47261;52.892;5.738;2022-08-19T04:56:07;16.50;95.40
61392;DHT22;47261;52.892;5.738;2022-08-19T04:58:33;16.50;95.40
61392;DHT22;47261;52.892;5.738;2022-08-19T05:01:00;16.50;95.40
61392;DHT22;47261;52.892;5.738;2022-08-19T05:03:26;16.60;95.40
61392;DHT22;47261;52.892;5.738;2022-08-19T05:05:52;16.60;95.40
61392;DHT22;47261;52.892;5.738;2022-08-19T05:08:19;16.60;95.40
61392;DHT22;47261;52.892;5.738;2022-08-19T05:10:50;16.60;95.40
61392;DHT22;47261;52.892;5.738;2022-08-19T05:13:18;16.60;95.30
61392;DHT22;47261;52.892;5.738;2022-08-19T05:15:44;16.70;95.30
61392;DHT22;47261;52.892;5.738;2022-08-19T05:18:18;16.70;95.30
61392;DHT22;47261;52.892;5.738;2022-08-19T05:21:06;16.70;95.30
61392;DHT22;47261;52.892;5.738;2022-08-19T05:23:51;16.70;95.20
61392;DHT22;47261;52.892;5.738;2022-08-19T05:26:16;16.80;95.30
61392;DHT22;47261;52.892;5.738;2022-08-19T05:28:42;16.80;95.20
61392;DHT22;47261;52.892;5.738;2022-08-19T05:31:07;16.80;95.20
61392;DHT22;47261;52.892;5.738;2022-08-19T05:33:33;16.90;95.30
61392;DHT22;47261;52.892;5.738;2022-08-19T05:35:59;16.90;95.30
61392;DHT22;47261;52.892;5.738;2022-08-19T05:38:26;17.00;95.30
61392;DHT22;47261;52.892;5.738;2022-08-19T05:40:52;17.10;95.40
61392;DHT22;47261;52.892;5.738;2022-08-19T05:43:18;17.30;95.20
61392;DHT22;47261;52.892;5.738;2022-08-19T05:45:43;17.50;94.90
61392;DHT22;47261;52.892;5.738;2022-08-19T05:48:10;17.80;94.60
61392;DHT22;47261;52.892;5.738;2022-08-19T05:50:40;18.00;94.40
61392;DHT22;47261;52.892;5.738;2022-08-19T05:53:07;18.10;94.30
61392;DHT22;47261;52.892;5.738;2022-08-19T05:55:34;18.20;94.30
61392;DHT22;47261;52.892;5.738;2022-08-19T05:58:00;18.30;94.30
61392;DHT22;47261;52.892;5.738;2022-08-19T06:00:27;18.30;94.30
61392;DHT22;47261;52.892;5.738;2022-08-19T06:02:53;18.40;94.30
61392;DHT22;47261;52.892;5.738;2022-08-19T06:05:27;18.50;94.60
61392;DHT22;47261;52.892;5.738;2022-08-19T06:07:53;18.50;94.30
61392;DHT22;47261;52.892;5.738;2022-08-19T06:10:19;18.50;94.30
61392;DHT22;47261;52.892;5.738;2022-08-19T06:12:46;18.60;94.30
61392;DHT22;47261;52.892;5.738;2022-08-19T06:15:13;18.60;94.40
61392;DHT22;47261;52.892;5.738;2022-08-19T06:17:39;18.70;94.50
61392;DHT22;47261;52.892;5.738;2022-08-19T06:20:10;18.80;94.50
61392;DHT22;47261;52.892;5.738;2022-08-19T06:22:45;18.90;94.40
61392;DHT22;47261;52.892;5.738;2022-08-19T06:25:13;19.10;94.40
61392;DHT22;47261;52.892;5.738;2022-08-19T06:27:40;19.20;94.20
61392;DHT22;47261;52.892;5.738;2022-08-19T06:30:06;19.30;94.30
61392;DHT22;47261;52.892;5.738;2022-08-19T06:32:32;19.50;93.90
61392;DHT22;47261;52.892;5.738;2022-08-19T06:34:57;19.60;93.70
61392;DHT22;47261;52.892;5.738;2022-08-19T06:37:23;19.70;93.80
61392;DHT22;47261;52.892;5.738;2022-08-19T06:39:50;19.70;93.80
61392;DHT22;47261;52.892;5.738;2022-08-19T06:42:16;19.80;93.80
61392;DHT22;47261;52.892;5.738;2022-08-19T06:44:46;19.80;93.80
61392;DHT22;47261;52.892;5.738;2022-08-19T06:47:15;19.90;93.80
61392;DHT22;47261;52.892;5.738;2022-08-19T06:49:41;20.00;94.20
61392;DHT22;47261;52.892;5.738;2022-08-19T06:52:07;20.10;94.00
61392;DHT22;47261;52.892;5.738;2022-08-19T06:54:33;20.20;94.00
61392;DHT22;47261;52.892;5.738;2022-08-19T06:57:00;20.30;93.80
61392;DHT22;47261;52.892;5.738;2022-08-19T06:59:30;20.30;93.80
61392;DHT22;47261;52.892;5.738;2022-08-19T07:02:00;20.40;93.80
61392;DHT22;47261;52.892;5.738;2022-08-19T07:04:29;20.50;93.90
61392;DHT22;47261;52.892;5.738;2022-08-19T07:06:58;20.50;93.90
61392;DHT22;47261;52.892;5.738;2022-08-19T07:09:25;20.60;93.90
61392;DHT22;47261;52.892;5.738;2022-08-19T07:11:52;20.70;93.90
61392;DHT22;47261;52.892;5.738;2022-08-19T07:14:22;20.80;93.90
61392;DHT22;47261;52.892;5.738;2022-08-19T07:16:50;20.90;93.80
61392;DHT22;47261;52.892;5.738;2022-08-19T07:19:18;20.90;93.70
61392;DHT22;47261;52.892;5.738;2022-08-19T07:21:44;21.00;93.70
61392;DHT22;47261;52.892;5.738;2022-08-19T07:24:10;21.10;93.80
61392;DHT22;47261;52.892;5.738;2022-08-19T07:26:40;21.10;93.80
61392;DHT22;47261;52.892;5.738;2022-08-19T07:29:06;21.20;93.80
61392;DHT22;47261;52.892;5.738;2022-08-19T07:31:32;21.30;93.70
61392;DHT22;47261;52.892;5.738;2022-08-19T07:34:03;21.30;93.70
61392;DHT22;47261;52.892;5.738;2022-08-19T07:36:34;21.40;93.80
61392;DHT22;47261;52.892;5.738;2022-08-19T07:39:04;21.50;93.80
61392;DHT22;47261;52.892;5.738;2022-08-19T07:41:30;21.60;93.70
61392;DHT22;47261;52.892;5.738;2022-08-19T07:43:57;21.60;93.70
61392;DHT22;47261;52.892;5.738;2022-08-19T07:46:23;21.70;93.70
61392;DHT22;47261;52.892;5.738;2022-08-19T07:48:49;21.80;93.70
61392;DHT22;47261;52.892;5.738;2022-08-19T07:51:19;21.80;93.60
61392;DHT22;47261;52.892;5.738;2022-08-19T07:53:46;21.90;93.70
61392;DHT22;47261;52.892;5.738;2022-08-19T07:56:13;22.00;93.80
61392;DHT22;47261;52.892;5.738;2022-08-19T07:58:42;22.10;93.60
61392;DHT22;47261;52.892;5.738;2022-08-19T08:01:12;22.20;92.90
61392;DHT22;47261;52.892;5.738;2022-08-19T08:03:38;22.20;92.80
61392;DHT22;47261;52.892;5.738;2022-08-19T08:06:23;22.20;92.80
61392;DHT22;47261;52.892;5.738;2022-08-19T08:09:08;22.30;92.40
61392;DHT22;47261;52.892;5.738;2022-08-19T08:11:39;22.30;92.60
61392;DHT22;47261;52.892;5.738;2022-08-19T08:14:06;22.40;92.50
61392;DHT22;47261;52.892;5.738;2022-08-19T08:16:38;22.40;92.40
61392;DHT22;47261;52.892;5.738;2022-08-19T08:19:05;22.50;92.30
61392;DHT22;47261;52.892;5.738;2022-08-19T08:21:32;22.50;91.70
61392;DHT22;47261;52.892;5.738;2022-08-19T08:23:58;22.50;91.60
61392;DHT22;47261;52.892;5.738;2022-08-19T08:26:24;22.50;91.90
61392;DHT22;47261;52.892;5.738;2022-08-19T08:28:51;22.60;91.90
61392;DHT22;47261;52.892;5.738;2022-08-19T08:31:18;22.70;92.00
61392;DHT22;47261;52.892;5.738;2022-08-19T08:33:47;22.70;91.90
61392;DHT22;47261;52.892;5.738;2022-08-19T08:36:13;22.80;91.70
61392;DHT22;47261;52.892;5.738;2022-08-19T08:38:40;22.90;91.70
61392;DHT22;47261;52.892;5.738;2022-08-19T08:41:18;22.90;91.50
61392;DHT22;47261;52.892;5.738;2022-08-19T08:43:49;23.00;91.60
61392;DHT22;47261;52.892;5.738;2022-08-19T08:48:56;23.30;91.50
61392;DHT22;47261;52.892;5.738;2022-08-19T08:51:37;23.40;91.10
61392;DHT22;47261;52.892;5.738;2022-08-19T08:54:08;23.50;90.70
61392;DHT22;47261;52.892;5.738;2022-08-19T08:56:37;23.50;90.80
61392;DHT22;47261;52.892;5.738;2022-08-19T08:59:07;23.60;90.70
61392;DHT22;47261;52.892;5.738;2022-08-19T09:01:35;23.70;90.70
61392;DHT22;47261;52.892;5.738;2022-08-19T09:04:05;23.80;90.40
61392;DHT22;47261;52.892;5.738;2022-08-19T09:06:56;23.90;90.70
61392;DHT22;47261;52.892;5.738;2022-08-19T09:09:51;24.10;90.70
61392;DHT22;47261;52.892;5.738;2022-08-19T09:15:06;24.30;90.00
61392;DHT22;47261;52.892;5.738;2022-08-19T09:17:32;24.30;90.00
61392;DHT22;47261;52.892;5.738;2022-08-19T09:22:39;24.40;88.90
61392;DHT22;47261;52.892;5.738;2022-08-19T09:25:07;24.40;89.10
61392;DHT22;47261;52.892;5.738;2022-08-19T09:27:34;24.40;89.00
61392;DHT22;47261;52.892;5.738;2022-08-19T09:30:02;24.40;89.20
61392;DHT22;47261;52.892;5.738;2022-08-19T09:32:27;24.50;89.40
61392;DHT22;47261;52.892;5.738;2022-08-19T09:34:53;24.60;88.30
61392;DHT22;47261;52.892;5.738;2022-08-19T09:37:20;24.60;87.80
61392;DHT22;47261;52.892;5.738;2022-08-19T09:39:46;24.70;87.90
61392;DHT22;47261;52.892;5.738;2022-08-19T09:42:12;24.70;88.00
61392;DHT22;47261;52.892;5.738;2022-08-19T09:44:42;24.70;88.20
61392;DHT22;47261;52.892;5.738;2022-08-19T09:47:09;24.90;87.90
61392;DHT22;47261;52.892;5.738;2022-08-19T09:49:36;25.00;87.10
61392;DHT22;47261;52.892;5.738;2022-08-19T09:52:03;25.10;86.30
61392;DHT22;47261;52.892;5.738;2022-08-19T09:54:29;25.20;85.30
61392;DHT22;47261;52.892;5.738;2022-08-19T09:56:55;25.20;85.50
61392;DHT22;47261;52.892;5.738;2022-08-19T09:59:21;25.40;85.70
61392;DHT22;47261;52.892;5.738;2022-08-19T10:01:47;25.50;85.10
61392;DHT22;47261;52.892;5.738;2022-08-19T10:04:12;25.70;84.30
61392;DHT22;47261;52.892;5.738;2022-08-19T10:06:39;25.80;83.40
61392;DHT22;47261;52.892;5.738;2022-08-19T10:09:08;25.90;82.10
61392;DHT22;47261;52.892;5.738;2022-08-19T10:11:35;26.00;82.00
61392;DHT22;47261;52.892;5.738;2022-08-19T10:14:03;26.00;81.60
61392;DHT22;47261;52.892;5.738;2022-08-19T10:16:31;26.00;81.30
61392;DHT22;47261;52.892;5.738;2022-08-19T10:18:57;26.00;81.40
61392;DHT22;47261;52.892;5.738;2022-08-19T10:21:26;26.00;81.40
61392;DHT22;47261;52.892;5.738;2022-08-19T10:23:56;26.10;81.90
61392;DHT22;47261;52.892;5.738;2022-08-19T10:26:28;26.10;80.80
61392;DHT22;47261;52.892;5.738;2022-08-19T10:28:55;26.10;81.00
61392;DHT22;47261;52.892;5.738;2022-08-19T10:31:27;26.10;80.10
61392;DHT22;47261;52.892;5.738;2022-08-19T10:33:54;26.20;81.00
61392;DHT22;47261;52.892;5.738;2022-08-19T10:36:29;26.20;80.50
61392;DHT22;47261;52.892;5.738;2022-08-19T10:38:57;26.20;79.90
61392;DHT22;47261;52.892;5.738;2022-08-19T10:41:26;26.30;81.20
61392;DHT22;47261;52.892;5.738;2022-08-19T10:43:58;26.40;80.40
61392;DHT22;47261;52.892;5.738;2022-08-19T10:46:25;26.40;79.30
61392;DHT22;47261;52.892;5.738;2022-08-19T10:48:53;26.50;79.60
61392;DHT22;47261;52.892;5.738;2022-08-19T10:51:20;26.50;79.40
61392;DHT22;47261;52.892;5.738;2022-08-19T10:54:04;26.50;78.80
61392;DHT22;47261;52.892;5.738;2022-08-19T10:56:31;26.40;78.60
61392;DHT22;47261;52.892;5.738;2022-08-19T10:59:16;26.20;78.90
61392;DHT22;47261;52.892;5.738;2022-08-19T11:01:43;26.20;79.90
61392;DHT22;47261;52.892;5.738;2022-08-19T11:04:09;26.10;80.60
61392;DHT22;47261;52.892;5.738;2022-08-19T11:06:37;26.20;79.90
61392;DHT22;47261;52.892;5.738;2022-08-19T11:09:04;26.10;79.70
61392;DHT22;47261;52.892;5.738;2022-08-19T11:11:30;26.10;79.40
61392;DHT22;47261;52.892;5.738;2022-08-19T11:13:58;26.00;81.00
61392;DHT22;47261;52.892;5.738;2022-08-19T11:16:25;26.00;81.40
61392;DHT22;47261;52.892;5.738;2022-08-19T11:18:57;26.10;81.00
61392;DHT22;47261;52.892;5.738;2022-08-19T11:21:28;26.20;81.50
61392;DHT22;47261;52.892;5.738;2022-08-19T11:23:58;26.40;81.50
61392;DHT22;47261;52.892;5.738;2022-08-19T11:26:25;26.60;81.20
61392;DHT22;47261;52.892;5.738;2022-08-19T11:28:51;26.70;79.00
61392;DHT22;47261;52.892;5.738;2022-08-19T11:31:21;26.60;78.70
61392;DHT22;47261;52.892;5.738;2022-08-19T11:33:47;26.60;79.00
61392;DHT22;47261;52.892;5.738;2022-08-19T11:36:16;26.50;79.20
61392;DHT22;47261;52.892;5.738;2022-08-19T11:38:42;26.50;78.70
61392;DHT22;47261;52.892;5.738;2022-08-19T11:41:08;26.50;78.80
61392;DHT22;47261;52.892;5.738;2022-08-19T11:43:34;26.50;79.20
61392;DHT22;47261;52.892;5.738;2022-08-19T11:46:07;26.50;78.50
61392;DHT22;47261;52.892;5.738;2022-08-19T11:48:33;26.50;79.40
61392;DHT22;47261;52.892;5.738;2022-08-19T11:51:03;26.60;78.40
61392;DHT22;47261;52.892;5.738;2022-08-19T11:53:32;26.60;78.80
61392;DHT22;47261;52.892;5.738;2022-08-19T11:55:58;26.60;78.80
61392;DHT22;47261;52.892;5.738;2022-08-19T11:58:23;26.60;79.50
61392;DHT22;47261;52.892;5.738;2022-08-19T12:00:50;26.70;79.40
61392;DHT22;47261;52.892;5.738;2022-08-19T12:03:16;26.70;79.30
61392;DHT22;47261;52.892;5.738;2022-08-19T12:05:42;26.60;78.40
61392;DHT22;47261;52.892;5.738;2022-08-19T12:08:08;26.60;78.60
61392;DHT22;47261;52.892;5.738;2022-08-19T12:10:35;26.50;79.30
61392;DHT22;47261;52.892;5.738;2022-08-19T12:13:00;26.30;79.60
61392;DHT22;47261;52.892;5.738;2022-08-19T12:15:27;26.20;80.00
61392;DHT22;47261;52.892;5.738;2022-08-19T12:17:55;26.20;80.40
61392;DHT22;47261;52.892;5.738;2022-08-19T12:20:22;26.20;80.20
61392;DHT22;47261;52.892;5.738;2022-08-19T12:22:48;26.30;79.40
61392;DHT22;47261;52.892;5.738;2022-08-19T12:25:13;26.30;79.40
61392;DHT22;47261;52.892;5.738;2022-08-19T12:27:39;26.20;80.00
61392;DHT22;47261;52.892;5.738;2022-08-19T12:30:07;26.10;79.80
61392;DHT22;47261;52.892;5.738;2022-08-19T12:32:33;26.00;80.00
61392;DHT22;47261;52.892;5.738;2022-08-19T12:34:59;25.80;80.30
61392;DHT22;47261;52.892;5.738;2022-08-19T12:37:25;25.70;81.10
61392;DHT22;47261;52.892;5.738;2022-08-19T12:39:50;25.60;81.50
61392;DHT22;47261;52.892;5.738;2022-08-19T12:42:16;25.60;82.30
61392;DHT22;47261;52.892;5.738;2022-08-19T12:44:42;25.50;83.00
61392;DHT22;47261;52.892;5.738;2022-08-19T12:47:10;25.40;83.70
61392;DHT22;47261;52.892;5.738;2022-08-19T12:49:36;25.20;83.40
61392;DHT22;47261;52.892;5.738;2022-08-19T12:52:06;25.00;83.60
61392;DHT22;47261;52.892;5.738;2022-08-19T12:54:33;24.80;83.80
61392;DHT22;47261;52.892;5.738;2022-08-19T12:56:59;24.60;84.80
61392;DHT22;47261;52.892;5.738;2022-08-19T12:59:26;24.50;85.90
61392;DHT22;47261;52.892;5.738;2022-08-19T13:01:52;24.40;86.90
61392;DHT22;47261;52.892;5.738;2022-08-19T13:04:18;24.30;88.00
61392;DHT22;47261;52.892;5.738;2022-08-19T13:06:44;24.20;88.60
61392;DHT22;47261;52.892;5.738;2022-08-19T13:09:10;24.30;89.10
61392;DHT22;47261;52.892;5.738;2022-08-19T13:11:37;24.30;89.10
61392;DHT22;47261;52.892;5.738;2022-08-19T13:14:03;24.30;89.10
61392;DHT22;47261;52.892;5.738;2022-08-19T13:16:29;24.30;88.50
61392;DHT22;47261;52.892;5.738;2022-08-19T13:18:56;24.30;88.30
61392;DHT22;47261;52.892;5.738;2022-08-19T13:21:26;24.40;88.70
61392;DHT22;47261;52.892;5.738;2022-08-19T13:23:53;24.50;88.60
61392;DHT22;47261;52.892;5.738;2022-08-19T13:26:19;24.60;87.70
61392;DHT22;47261;52.892;5.738;2022-08-19T13:28:46;24.70;87.10
61392;DHT22;47261;52.892;5.738;2022-08-19T13:31:32;24.80;86.70
61392;DHT22;47261;52.892;5.738;2022-08-19T13:34:18;25.00;86.50
61392;DHT22;47261;52.892;5.738;2022-08-19T13:36:44;25.10;85.70
61392;DHT22;47261;52.892;5.738;2022-08-19T13:39:10;25.20;85.80
61392;DHT22;47261;52.892;5.738;2022-08-19T13:41:37;25.40;85.70
61392;DHT22;47261;52.892;5.738;2022-08-19T13:44:03;25.60;84.40
61392;DHT22;47261;52.892;5.738;2022-08-19T13:46:29;25.70;83.90
61392;DHT22;47261;52.892;5.738;2022-08-19T13:48:56;25.80;82.00
61392;DHT22;47261;52.892;5.738;2022-08-19T13:51:22;25.80;81.80
61392;DHT22;47261;52.892;5.738;2022-08-19T13:53:48;25.70;82.60
61392;DHT22;47261;52.892;5.738;2022-08-19T13:56:17;25.70;83.00
61392;DHT22;47261;52.892;5.738;2022-08-19T13:58:43;25.60;82.80
61392;DHT22;47261;52.892;5.738;2022-08-19T14:01:09;25.60;83.40
61392;DHT22;47261;52.892;5.738;2022-08-19T14:03:36;25.60;84.10
61392;DHT22;47261;52.892;5.738;2022-08-19T14:06:01;25.60;84.10
61392;DHT22;47261;52.892;5.738;2022-08-19T14:08:27;25.50;84.30
61392;DHT22;47261;52.892;5.738;2022-08-19T14:10:54;25.50;84.50
61392;DHT22;47261;52.892;5.738;2022-08-19T14:13:22;25.60;84.70
61392;DHT22;47261;52.892;5.738;2022-08-19T14:15:48;25.70;84.40
61392;DHT22;47261;52.892;5.738;2022-08-19T14:18:16;25.80;84.30
61392;DHT22;47261;52.892;5.738;2022-08-19T14:20:42;26.00;84.80
61392;DHT22;47261;52.892;5.738;2022-08-19T14:23:08;26.10;83.50
61392;DHT22;47261;52.892;5.738;2022-08-19T14:25:34;26.10;83.20
61392;DHT22;47261;52.892;5.738;2022-08-19T14:27:59;26.10;82.90
61392;DHT22;47261;52.892;5.738;2022-08-19T14:30:36;26.00;82.60
61392;DHT22;47261;52.892;5.738;2022-08-19T14:33:04;26.00;82.50
61392;DHT22;47261;52.892;5.738;2022-08-19T14:35:31;26.10;82.70
61392;DHT22;47261;52.892;5.738;2022-08-19T14:38:00;26.30;82.50
61392;DHT22;47261;52.892;5.738;2022-08-19T14:40:28;26.30;80.30
61392;DHT22;47261;52.892;5.738;2022-08-19T14:42:57;26.30;79.10
61392;DHT22;47261;52.892;5.738;2022-08-19T14:45:33;26.10;79.10
61392;DHT22;47261;52.892;5.738;2022-08-19T14:47:59;26.00;79.60
61392;DHT22;47261;52.892;5.738;2022-08-19T14:50:25;25.80;80.80
61392;DHT22;47261;52.892;5.738;2022-08-19T14:53:01;25.80;81.80
61392;DHT22;47261;52.892;5.738;2022-08-19T14:55:27;25.70;82.30
61392;DHT22;47261;52.892;5.738;2022-08-19T14:57:53;25.70;82.50
61392;DHT22;47261;52.892;5.738;2022-08-19T15:00:18;25.70;82.70
61392;DHT22;47261;52.892;5.738;2022-08-19T15:02:44;25.70;82.70
61392;DHT22;47261;52.892;5.738;2022-08-19T15:05:10;25.80;82.80
61392;DHT22;47261;52.892;5.738;2022-08-19T15:07:36;25.80;82.80
61392;DHT22;47261;52.892;5.738;2022-08-19T15:10:04;26.00;82.80
61392;DHT22;47261;52.892;5.738;2022-08-19T15:12:30;26.10;82.30
61392;DHT22;47261;52.892;5.738;2022-08-19T15:14:55;26.10;82.00
61392;DHT22;47261;52.892;5.738;2022-08-19T15:17:21;26.10;81.80
61392;DHT22;47261;52.892;5.738;2022-08-19T15:19:47;26.10;81.80
61392;DHT22;47261;52.892;5.738;2022-08-19T15:22:13;26.00;81.60
61392;DHT22;47261;52.892;5.738;2022-08-19T15:24:39;26.00;81.90
61392;DHT22;47261;52.892;5.738;2022-08-19T15:27:04;26.00;82.00
61392;DHT22;47261;52.892;5.738;2022-08-19T15:29:31;26.00;82.00
61392;DHT22;47261;52.892;5.738;2022-08-19T15:31:58;26.00;81.60
61392;DHT22;47261;52.892;5.738;2022-08-19T15:34:24;26.10;81.50
61392;DHT22;47261;52.892;5.738;2022-08-19T15:36:51;26.10;81.10
61392;DHT22;47261;52.892;5.738;2022-08-19T15:39:18;26.10;80.90
61392;DHT22;47261;52.892;5.738;2022-08-19T15:41:44;26.10;80.90
61392;DHT22;47261;52.892;5.738;2022-08-19T15:44:13;26.10;80.80
61392;DHT22;47261;52.892;5.738;2022-08-19T15:46:40;26.10;80.80